Time;durP1;ratioP1;P1;durP2;ratioP2;P2;SDS_P1;SDS_P2;PMS_P1;PMS_P2;Temp;Humidity;BMP_temperature;BMP_pressure;BME280_temperature;BME280_humidity;BME280_pressure;Samples;Min_cycle;Max_cycle;Signal;HPM_P1;HPM_P2
2022/09/06 00:00:55;;;;;;;4.72;4.25;;;;;;;17.44;nan;95698.09;5033162;28;20207;-68
2022/09/06 00:03:21;;;;;;;6.05;4.25;;;;;;;17.58;nan;95700.81;5032980;28;20715;-68
2022/09/06 00:05:48;;;;;;;10.75;8.13;;;;;;;17.56;nan;95702.66;5033722;28;20721;-69
2022/09/06 00:08:15;;;;;;;4.57;4.28;;;;;;;17.32;nan;95703.88;5030916;28;20693;-67
2022/09/06 00:10:42;;;;;;;10.13;5.03;;;;;;;17.37;nan;95701.88;5031768;28;20238;-69
2022/09/06 00:13:12;;;;;;;5.20;4.70;;;;;;;17.38;nan;95698.41;5033077;28;20233;-67
2022/09/06 00:15:39;;;;;;;6.95;5.25;;;;;;;17.43;nan;95700.75;5032557;28;20552;-69
2022/09/06 00:18:08;;;;;;;4.68;4.22;;;;;;;17.13;nan;95701.38;5031469;28;20217;-67
2022/09/06 00:20:40;;;;;;;5.00;4.03;;;;;;;17.27;nan;95700.69;5030616;28;20481;-68
2022/09/06 00:23:07;;;;;;;4.55;4.25;;;;;;;17.17;nan;95699.47;5030894;28;20198;-68
2022/09/06 00:25:34;;;;;;;4.90;4.50;;;;;;;16.75;nan;95703.22;5031983;28;20676;-68
2022/09/06 00:28:03;;;;;;;9.23;4.93;;;;;;;16.78;nan;95697.13;5031756;28;20708;-68
2022/09/06 00:30:32;;;;;;;4.28;3.97;;;;;;;16.84;nan;95692.50;5030371;28;20626;-68
2022/09/06 00:32:59;;;;;;;6.55;5.55;;;;;;;16.68;nan;95701.84;5032246;28;20202;-68
2022/09/06 00:35:27;;;;;;;5.65;4.97;;;;;;;16.90;nan;95692.22;5032210;28;20689;-68
2022/09/06 00:37:57;;;;;;;5.35;4.85;;;;;;;17.00;nan;95696.00;5031986;28;20330;-67
2022/09/06 00:40:23;;;;;;;7.18;4.15;;;;;;;16.50;nan;95697.56;5030319;28;20206;-68
2022/09/06 00:42:50;;;;;;;4.10;3.80;;;;;;;16.24;nan;95697.03;5030015;28;20267;-66
2022/09/06 00:45:18;;;;;;;4.60;4.35;;;;;;;16.13;nan;95696.66;5030840;28;20221;-68
2022/09/06 00:47:48;;;;;;;6.10;4.68;;;;;;;16.26;nan;95696.94;5029951;28;20210;-67
2022/09/06 00:50:17;;;;;;;4.57;4.13;;;;;;;15.96;nan;95697.44;5029792;28;20199;-68
2022/09/06 00:52:47;;;;;;;6.75;5.45;;;;;;;16.04;nan;95703.94;5029941;28;20292;-67
2022/09/06 00:55:14;;;;;;;6.15;4.53;;;;;;;16.38;nan;95687.84;5030494;28;20226;-67
2022/09/06 00:57:41;;;;;;;3.85;3.60;;;;;;;16.55;nan;95701.56;5031264;28;20214;-67
2022/09/06 01:00:09;;;;;;;6.65;4.75;;;;;;;16.51;nan;95709.47;5029902;28;20866;-67
2022/09/06 01:02:36;;;;;;;4.78;4.43;;;;;;;16.60;nan;95704.72;5030935;28;20675;-68
2022/09/06 01:05:06;;;;;;;3.92;3.72;;;;;;;16.53;nan;95707.69;5030826;28;20217;-69
2022/09/06 01:07:47;;;;;;;8.18;3.95;;;;;;;16.54;nan;95699.91;5030754;28;20207;-67
2022/09/06 01:10:42;;;;;;;4.78;3.85;;;;;;;16.66;nan;95706.22;5029521;28;20317;-67
2022/09/06 01:13:22;;;;;;;4.72;4.22;;;;;;;16.59;nan;95703.06;5030929;28;20206;-70
2022/09/06 01:15:57;;;;;;;4.50;4.20;;;;;;;16.13;nan;95709.47;5031312;28;20692;-68
2022/09/06 01:18:39;;;;;;;4.38;3.80;;;;;;;16.04;nan;95697.09;5031104;28;20205;-69
2022/09/06 01:21:21;;;;;;;4.35;3.88;;;;;;;16.40;nan;95697.13;5030678;28;20300;-67
2022/09/06 01:24:25;;;;;;;7.15;4.00;;;;;;;16.16;nan;95699.09;5031288;28;20868;-67
2022/09/06 01:27:15;;;;;;;5.25;3.92;;;;;;;15.61;nan;95701.53;5031379;28;20293;-67
2022/09/06 01:29:48;;;;;;;6.03;5.13;;;;;;;15.30;nan;95696.03;5030145;28;20210;-67
2022/09/06 01:32:20;;;;;;;4.40;3.92;;;;;;;15.52;nan;95691.66;5030883;28;20203;-67
2022/09/06 01:34:54;;;;;;;4.20;3.90;;;;;;;15.85;nan;95698.78;5030730;28;20199;-69
2022/09/06 01:37:23;;;;;;;5.18;4.22;;;;;;;16.07;nan;95696.13;5029918;28;20291;-67
2022/09/06 01:39:50;;;;;;;3.97;3.67;;;;;;;16.10;nan;95691.66;5029369;28;20287;-69
2022/09/06 01:42:19;;;;;;;4.28;3.88;;;;;;;16.30;nan;95691.63;5029939;28;20211;-67
2022/09/06 01:44:52;;;;;;;4.10;3.70;;;;;;;16.31;nan;95688.16;5030285;28;20846;-68
2022/09/06 01:47:30;;;;;;;4.80;3.40;;;;;;;16.29;nan;95684.81;5030513;28;20268;-66
2022/09/06 01:50:27;;;;;;;4.00;3.67;;;;;;;15.88;nan;95678.16;5029665;28;20234;-67
2022/09/06 01:53:04;;;;;;;4.47;4.07;;;;;;;15.53;nan;95682.25;5027625;28;20206;-68
2022/09/06 01:55:39;;;;;;;4.65;4.22;;;;;;;15.65;nan;95676.59;5032592;28;20932;-67
2022/09/06 01:58:24;;;;;;;4.70;4.38;;;;;;;15.93;nan;95676.22;5031148;28;20266;-65
2022/09/06 02:01:00;;;;;;;7.75;4.88;;;;;;;15.96;nan;95668.41;5029448;28;20255;-67
2022/09/06 02:03:33;;;;;;;4.05;3.75;;;;;;;15.73;nan;95673.72;5030286;28;20202;-67
2022/09/06 02:06:05;;;;;;;4.55;4.15;;;;;;;15.84;nan;95671.50;5030226;28;20722;-68
2022/09/06 02:08:37;;;;;;;7.93;4.18;;;;;;;16.06;nan;95669.66;5030015;28;20259;-67
2022/09/06 02:11:07;;;;;;;4.38;4.07;;;;;;;16.04;nan;95668.06;5029492;28;20213;-67
2022/09/06 02:13:52;;;;;;;4.68;4.38;;;;;;;16.16;nan;95672.63;5030754;28;20210;-67
2022/09/06 02:16:24;;;;;;;4.05;3.75;;;;;;;16.09;nan;95669.50;5030634;28;20857;-67
2022/09/06 02:18:55;;;;;;;4.25;3.95;;;;;;;15.92;nan;95670.25;5030577;28;20210;-67
2022/09/06 02:21:28;;;;;;;6.03;4.57;;;;;;;16.03;nan;95669.78;5027984;28;20792;-67
2022/09/06 02:23:58;;;;;;;7.35;4.55;;;;;;;16.22;nan;95665.47;5030088;28;20314;-67
2022/09/06 02:26:27;;;;;;;4.55;3.90;;;;;;;16.10;nan;95676.28;5030254;28;22238;-68
2022/09/06 02:28:55;;;;;;;7.03;4.22;;;;;;;16.07;nan;95671.31;5030112;28;20203;-68
2022/09/06 02:31:29;;;;;;;4.38;4.03;;;;;;;16.04;nan;95674.03;5028966;28;20206;-67
2022/09/06 02:33:56;;;;;;;4.57;4.28;;;;;;;15.94;nan;95678.72;5029514;28;21666;-68
2022/09/06 02:36:23;;;;;;;6.07;4.18;;;;;;;16.01;nan;95675.88;5031393;28;20630;-66
2022/09/06 02:38:50;;;;;;;4.43;4.05;;;;;;;15.95;nan;95682.13;5029920;28;20202;-68
2022/09/06 02:41:22;;;;;;;4.60;4.30;;;;;;;16.02;nan;95673.25;5028775;28;20221;-68
2022/09/06 02:43:49;;;;;;;4.40;4.15;;;;;;;15.84;nan;95681.75;5030256;28;21112;-67
2022/09/06 02:46:16;;;;;;;4.43;3.55;;;;;;;15.77;nan;95685.50;5029829;28;20218;-66
2022/09/06 02:48:45;;;;;;;8.05;4.40;;;;;;;15.93;nan;95681.34;5030395;28;20210;-67
2022/09/06 02:51:12;;;;;;;6.60;4.22;;;;;;;15.91;nan;95689.09;5029239;28;20234;-67
2022/09/06 02:53:38;;;;;;;5.68;4.82;;;;;;;15.67;nan;95689.34;5029366;28;20229;-68
2022/09/06 02:56:06;;;;;;;4.63;3.50;;;;;;;15.72;nan;95687.41;5030776;28;20198;-67
2022/09/06 02:58:32;;;;;;;4.32;4.03;;;;;;;15.74;nan;95683.91;5030278;28;20715;-67
2022/09/06 03:00:59;;;;;;;4.47;4.10;;;;;;;15.79;nan;95681.97;5030145;28;20194;-68
2022/09/06 03:03:27;;;;;;;4.30;4.00;;;;;;;15.58;nan;95682.91;5029829;28;20598;-67
2022/09/06 03:05:55;;;;;;;5.18;4.78;;;;;;;15.55;nan;95681.28;5029576;28;20234;-67
2022/09/06 03:08:24;;;;;;;4.30;4.00;;;;;;;15.08;nan;95679.91;5029367;28;20218;-68
2022/09/06 03:10:52;;;;;;;5.40;4.78;;;;;;;14.68;nan;95684.03;5028724;28;20210;-68
2022/09/06 03:13:19;;;;;;;4.80;4.50;;;;;;;14.98;nan;95682.81;5028592;28;20207;-67
2022/09/06 03:15:51;;;;;;;5.05;4.53;;;;;;;15.16;nan;95688.91;5030642;28;20321;-67
2022/09/06 03:18:17;;;;;;;5.05;4.15;;;;;;;15.08;nan;95678.16;5030627;28;20206;-68
2022/09/06 03:20:44;;;;;;;4.75;4.30;;;;;;;15.35;nan;95683.84;5029197;28;20210;-67
2022/09/06 03:23:12;;;;;;;6.97;4.70;;;;;;;15.40;nan;95681.09;5029720;28;20327;-68
2022/09/06 03:25:39;;;;;;;7.57;4.70;;;;;;;15.35;nan;95688.94;5029473;28;20708;-68
2022/09/06 03:28:06;;;;;;;4.72;4.20;;;;;;;15.32;nan;95686.56;5029888;28;20271;-67
2022/09/06 03:30:32;;;;;;;4.82;4.40;;;;;;;15.30;nan;95688.34;5030081;28;20271;-68
2022/09/06 03:32:59;;;;;;;4.68;4.22;;;;;;;15.43;nan;95697.16;5033266;28;20706;-67
2022/09/06 03:35:26;;;;;;;7.15;4.13;;;;;;;15.57;nan;95694.88;5034712;28;20206;-67
2022/09/06 03:37:53;;;;;;;5.10;4.68;;;;;;;15.38;nan;95696.50;5033906;28;20206;-68
2022/09/06 03:40:21;;;;;;;4.75;4.38;;;;;;;15.37;nan;95699.97;5032358;28;20206;-68
2022/09/06 03:42:47;;;;;;;5.25;4.82;;;;;;;15.39;nan;95690.50;5033664;28;20209;-68
2022/09/06 03:45:14;;;;;;;5.10;4.60;;;;;;;15.27;nan;95701.28;5033282;28;20219;-67
2022/09/06 03:47:41;;;;;;;4.63;4.35;;;;;;;15.16;nan;95700.88;5034057;28;20487;-68
2022/09/06 03:50:09;;;;;;;4.90;4.50;;;;;;;15.26;nan;95704.72;5032573;28;20244;-68
2022/09/06 03:52:35;;;;;;;6.65;5.18;;;;;;;15.41;nan;95706.63;5033331;28;20771;-68
2022/09/06 03:55:02;;;;;;;7.68;5.75;;;;;;;15.55;nan;95709.47;5031685;28;20242;-67
2022/09/06 03:57:30;;;;;;;5.60;5.10;;;;;;;15.62;nan;95705.75;5033020;28;20627;-68
2022/09/06 03:59:57;;;;;;;6.22;4.75;;;;;;;15.74;nan;95712.09;5032254;28;20273;-68
2022/09/06 04:02:24;;;;;;;5.13;4.68;;;;;;;15.77;nan;95711.13;5032329;28;20679;-68
2022/09/06 04:04:54;;;;;;;4.82;4.53;;;;;;;15.67;nan;95709.84;5032670;28;20283;-68
2022/09/06 04:07:21;;;;;;;5.07;4.68;;;;;;;15.61;nan;95714.31;5032146;28;20230;-68
2022/09/06 04:09:48;;;;;;;6.03;3.88;;;;;;;15.04;nan;95709.06;5033812;28;20226;-70
2022/09/06 04:12:14;;;;;;;5.45;4.95;;;;;;;15.10;nan;95712.19;5032596;28;20283;-70
2022/09/06 04:14:42;;;;;;;5.07;4.57;;;;;;;15.18;nan;95717.00;5032096;28;20202;-68
2022/09/06 04:17:09;;;;;;;6.97;5.22;;;;;;;14.44;nan;95713.13;5032320;28;21097;-68
2022/09/06 04:19:36;;;;;;;8.60;5.50;;;;;;;14.15;nan;95711.63;5033315;28;20777;-68
2022/09/06 04:22:03;;;;;;;6.95;5.15;;;;;;;13.98;nan;95707.16;5032647;28;20264;-68
2022/09/06 04:24:30;;;;;;;6.22;5.10;;;;;;;14.08;nan;95705.94;5033099;28;20255;-68
2022/09/06 04:26:57;;;;;;;8.18;5.25;;;;;;;13.86;nan;95705.88;5032031;28;22856;-68
2022/09/06 04:29:23;;;;;;;5.68;4.90;;;;;;;14.28;nan;95703.47;5031908;28;20259;-68
2022/09/06 04:31:51;;;;;;;6.20;4.85;;;;;;;14.60;nan;95714.19;5031811;28;20343;-67
2022/09/06 04:34:19;;;;;;;13.20;4.68;;;;;;;14.34;nan;95704.13;5033652;28;20271;-69
2022/09/06 04:36:45;;;;;;;4.97;4.45;;;;;;;14.29;nan;95710.25;5031660;28;20616;-67
2022/09/06 04:39:12;;;;;;;9.48;4.95;;;;;;;14.68;nan;95711.34;5032630;28;21887;-68
2022/09/06 04:41:39;;;;;;;5.82;5.43;;;;;;;15.10;nan;95706.22;5031511;28;20271;-67
2022/09/06 04:44:05;;;;;;;5.03;4.63;;;;;;;15.48;nan;95714.91;5031566;28;20805;-67
2022/09/06 04:46:32;;;;;;;6.57;4.80;;;;;;;15.78;nan;95707.66;5031351;28;20230;-68
2022/09/06 04:49:00;;;;;;;8.25;5.20;;;;;;;15.41;nan;95713.47;5031565;28;20297;-68
2022/09/06 04:51:27;;;;;;;9.57;5.45;;;;;;;15.11;nan;95710.47;5031349;28;20343;-67
2022/09/06 04:53:54;;;;;;;6.43;4.95;;;;;;;15.19;nan;95703.31;5032651;28;20230;-68
2022/09/06 04:56:23;;;;;;;7.10;5.80;;;;;;;15.18;nan;95702.47;5031708;28;21036;-68
2022/09/06 04:58:51;;;;;;;5.25;4.72;;;;;;;15.90;nan;95701.97;5032616;28;20218;-67
2022/09/06 05:01:19;;;;;;;7.05;4.93;;;;;;;16.42;nan;95702.19;5032210;28;21556;-68
2022/09/06 05:03:45;;;;;;;7.55;5.55;;;;;;;16.99;nan;95704.63;5033081;28;20194;-69
2022/09/06 05:06:19;;;;;;;11.00;5.20;;;;;;;17.25;nan;95702.50;5030850;28;20702;-68
2022/09/06 05:08:46;;;;;;;5.68;5.28;;;;;;;17.50;nan;95704.69;5030772;28;20202;-69
2022/09/06 05:11:13;;;;;;;6.97;5.57;;;;;;;17.85;nan;95706.31;5030872;28;20293;-70
2022/09/06 05:13:41;;;;;;;8.30;5.38;;;;;;;18.18;nan;95703.72;5031547;28;20339;-68
2022/09/06 05:16:08;;;;;;;10.77;5.88;;;;;;;18.84;nan;95706.13;5031496;28;20190;-67
2022/09/06 05:18:35;;;;;;;10.57;5.22;;;;;;;20.09;nan;95698.00;5031715;28;20210;-68
2022/09/06 05:21:02;;;;;;;5.47;4.95;;;;;;;21.94;nan;95703.28;5031108;28;20206;-67
2022/09/06 05:23:30;;;;;;;6.18;4.60;;;;;;;24.09;nan;95693.69;5031015;28;20206;-67
2022/09/06 05:25:57;;;;;;;5.53;4.05;;;;;;;25.93;nan;95685.78;5030901;28;20295;-67
2022/09/06 05:28:24;;;;;;;6.07;4.05;;;;;;;27.63;nan;95683.78;5031792;28;20217;-67
2022/09/06 05:30:50;;;;;;;4.53;4.15;;;;;;;29.06;nan;95680.69;5030785;28;21981;-68
2022/09/06 05:33:21;;;;;;;7.60;4.43;;;;;;;30.50;nan;95679.38;5033061;28;20230;-68
2022/09/06 05:35:48;;;;;;;10.27;5.05;;;;;;;31.10;nan;95677.41;5031580;28;20256;-68
2022/09/06 05:38:15;;;;;;;6.05;5.60;;;;;;;31.90;nan;95675.81;5031696;28;20210;-68
2022/09/06 05:40:44;;;;;;;6.35;5.75;;;;;;;32.33;nan;95674.56;5031221;28;20391;-68
2022/09/06 05:43:11;;;;;;;5.90;5.32;;;;;;;31.73;nan;95680.25;5032288;28;20535;-68
2022/09/06 05:45:37;;;;;;;5.45;4.60;;;;;;;32.73;nan;95675.34;5031514;28;20789;-68
2022/09/06 05:48:05;;;;;;;6.43;4.97;;;;;;;32.25;nan;95676.38;5030655;28;20206;-68
2022/09/06 05:50:31;;;;;;;4.82;4.43;;;;;;;33.15;nan;95674.16;5030670;28;20367;-69
2022/09/06 05:52:58;;;;;;;8.73;5.68;;;;;;;33.76;nan;95675.78;5030288;28;20293;-68
2022/09/06 05:55:25;;;;;;;6.90;6.40;;;;;;;33.57;nan;95668.41;5029978;28;20678;-68
2022/09/06 05:57:53;;;;;;;8.65;7.25;;;;;;;33.84;nan;95661.75;5030714;28;20202;-68
2022/09/06 06:00:20;;;;;;;8.50;7.68;;;;;;;32.42;nan;95665.63;5030244;28;20218;-68
2022/09/06 06:02:47;;;;;;;6.35;5.90;;;;;;;32.31;nan;95658.13;5030420;28;20647;-68
2022/09/06 06:05:15;;;;;;;8.70;6.22;;;;;;;32.04;nan;95666.41;5031577;28;20230;-69
2022/09/06 06:07:41;;;;;;;6.88;6.03;;;;;;;32.15;nan;95658.16;5030945;28;20297;-68
2022/09/06 06:10:09;;;;;;;9.90;5.35;;;;;;;31.49;nan;95664.47;5030569;28;20725;-68
2022/09/06 06:12:36;;;;;;;5.47;5.00;;;;;;;30.51;nan;95660.84;5030683;28;20228;-68
2022/09/06 06:15:05;;;;;;;5.78;5.28;;;;;;;29.54;nan;95655.09;5031084;28;20206;-67
2022/09/06 06:17:32;;;;;;;5.63;5.13;;;;;;;28.52;nan;95657.19;5031009;28;20202;-68
2022/09/06 06:19:59;;;;;;;5.10;4.72;;;;;;;28.70;nan;95653.66;5030864;28;20202;-68
2022/09/06 06:22:25;;;;;;;7.30;5.22;;;;;;;29.91;nan;95644.34;5030319;28;20683;-69
2022/09/06 06:24:52;;;;;;;5.30;4.88;;;;;;;31.78;nan;95654.31;5029220;28;20263;-68
2022/09/06 06:27:19;;;;;;;5.90;5.47;;;;;;;32.52;nan;95648.81;5029326;28;20237;-69
2022/09/06 06:29:45;;;;;;;6.85;5.75;;;;;;;31.44;nan;95651.00;5030210;28;20203;-68
2022/09/06 06:32:14;;;;;;;6.28;5.25;;;;;;;32.70;nan;95646.72;5030961;28;20210;-70
2022/09/06 06:34:40;;;;;;;5.82;5.22;;;;;;;34.20;nan;95652.09;5030488;28;20432;-68
2022/09/06 06:37:07;;;;;;;7.57;4.70;;;;;;;34.42;nan;95645.09;5030185;28;20202;-68
2022/09/06 06:39:34;;;;;;;8.20;5.55;;;;;;;33.05;nan;95646.22;5030344;28;20259;-70
2022/09/06 06:42:01;;;;;;;5.82;5.35;;;;;;;31.75;nan;95646.75;5032484;28;20201;-69
2022/09/06 06:44:27;;;;;;;6.03;5.45;;;;;;;32.99;nan;95639.00;5031413;28;20719;-68
2022/09/06 06:46:56;;;;;;;6.72;5.90;;;;;;;32.77;nan;95643.28;5030122;28;21095;-68
2022/09/06 06:49:24;;;;;;;6.13;5.28;;;;;;;34.00;nan;95643.13;5030022;28;20202;-68
2022/09/06 06:51:51;;;;;;;6.50;5.65;;;;;;;35.09;nan;95645.69;5030982;28;20256;-69
2022/09/06 06:54:18;;;;;;;5.50;5.10;;;;;;;34.49;nan;95642.56;5031621;28;20831;-67
2022/09/06 06:56:45;;;;;;;6.07;5.32;;;;;;;34.43;nan;95642.28;5028623;28;20217;-68
2022/09/06 06:59:13;;;;;;;7.70;7.00;;;;;;;33.09;nan;95646.69;5028067;28;20676;-67
2022/09/06 07:01:40;;;;;;;8.80;6.28;;;;;;;31.74;nan;95650.34;5028154;28;20215;-69
2022/09/06 07:04:09;;;;;;;10.57;6.63;;;;;;;32.17;nan;95645.66;5028588;28;20730;-68
2022/09/06 07:06:49;;;;;;;9.50;6.38;;;;;;;31.86;nan;95652.66;5027286;28;20718;-69
2022/09/06 07:09:16;;;;;;;11.68;6.28;;;;;;;33.78;nan;95650.09;5028643;28;20289;-67
2022/09/06 07:11:43;;;;;;;10.50;6.43;;;;;;;34.09;nan;95649.94;5030520;28;20213;-69
2022/09/06 07:14:10;;;;;;;8.63;6.13;;;;;;;33.37;nan;95644.38;5034132;28;20226;-69
2022/09/06 07:16:37;;;;;;;8.63;6.88;;;;;;;34.08;nan;95658.84;5028939;28;20258;-69
2022/09/06 07:19:04;;;;;;;12.02;7.53;;;;;;;34.21;nan;95651.09;5032287;28;20239;-70
2022/09/06 07:21:30;;;;;;;13.00;7.28;;;;;;;34.84;nan;95654.16;5028299;28;20494;-69
2022/09/06 07:23:59;;;;;;;10.15;6.10;;;;;;;34.00;nan;95658.94;5031308;28;20443;-70
2022/09/06 07:26:27;;;;;;;7.82;6.75;;;;;;;33.92;nan;95657.19;5030360;28;20442;-69
2022/09/06 07:28:54;;;;;;;9.60;5.93;;;;;;;34.06;nan;95651.13;5031499;28;20951;-68
2022/09/06 07:31:20;;;;;;;7.53;6.03;;;;;;;33.44;nan;95653.19;5033069;28;20210;-69
2022/09/06 07:33:47;;;;;;;7.03;6.32;;;;;;;33.77;nan;95645.78;5032978;28;20741;-68
2022/09/06 07:36:14;;;;;;;6.63;6.10;;;;;;;34.91;nan;95655.03;5033049;28;20660;-69
2022/09/06 07:38:41;;;;;;;11.50;6.50;;;;;;;32.54;nan;95654.72;5033670;28;20211;-70
2022/09/06 07:41:10;;;;;;;6.57;5.95;;;;;;;32.68;nan;95651.34;5033507;28;20206;-68
2022/09/06 07:43:37;;;;;;;6.85;6.07;;;;;;;32.02;nan;95649.97;5034411;28;20624;-69
2022/09/06 07:46:06;;;;;;;7.65;6.13;;;;;;;32.56;nan;95650.94;5033539;28;20230;-68
2022/09/06 07:48:35;;;;;;;10.05;6.15;;;;;;;33.39;nan;95648.47;5031791;28;20202;-68
2022/09/06 07:51:07;;;;;;;13.65;12.07;;;;;;;33.59;nan;95654.06;5031102;28;20647;-69
2022/09/06 07:53:34;;;;;;;12.10;7.75;;;;;;;32.87;nan;95648.31;5032147;28;20430;-70
2022/09/06 07:56:02;;;;;;;40.72;32.03;;;;;;;31.77;nan;95657.09;5032555;28;20210;-66
2022/09/06 07:58:31;;;;;;;8.05;6.75;;;;;;;31.89;nan;95647.06;5032382;28;20515;-67
2022/09/06 08:01:18;;;;;;;16.40;8.82;;;;;;;29.78;nan;95648.19;5032661;28;20666;-67
2022/09/06 08:03:46;;;;;;;9.57;6.93;;;;;;;28.74;nan;95646.31;5033376;28;20826;-67
2022/09/06 08:06:13;;;;;;;8.50;6.53;;;;;;;27.46;nan;95647.94;5033156;28;20229;-67
2022/09/06 08:08:40;;;;;;;9.65;7.38;;;;;;;26.67;nan;95644.63;5031781;28;20198;-67
2022/09/06 08:11:07;;;;;;;7.18;6.13;;;;;;;26.95;nan;95645.63;5033698;28;20198;-67
2022/09/06 08:13:35;;;;;;;8.40;6.57;;;;;;;28.02;nan;95644.47;5032809;28;20424;-67
2022/09/06 08:16:04;;;;;;;9.63;7.15;;;;;;;28.37;nan;95639.41;5030767;28;20209;-67
2022/09/06 08:18:31;;;;;;;9.93;7.40;;;;;;;28.09;nan;95641.16;5028573;28;20206;-67
2022/09/06 08:21:06;;;;;;;7.97;7.07;;;;;;;27.76;nan;95639.91;5031000;28;20700;-67
2022/09/06 08:23:32;;;;;;;8.15;7.10;;;;;;;27.00;nan;95640.81;5030367;28;20586;-66
2022/09/06 08:26:00;;;;;;;9.15;7.30;;;;;;;26.35;nan;95645.66;5032326;28;20226;-67
2022/09/06 08:28:26;;;;;;;11.35;6.40;;;;;;;26.25;nan;95638.72;5030865;28;20206;-67
2022/09/06 08:30:54;;;;;;;6.80;6.13;;;;;;;26.51;nan;95632.09;5033119;28;20209;-67
2022/09/06 08:33:24;;;;;;;9.30;6.90;;;;;;;26.82;nan;95632.81;5031784;28;20771;-68
2022/09/06 08:35:57;;;;;;;11.55;7.30;;;;;;;26.90;nan;95635.59;5032162;28;21157;-68
2022/09/06 08:38:24;;;;;;;6.28;5.78;;;;;;;26.07;nan;95628.94;5031673;28;20203;-68
2022/09/06 08:40:52;;;;;;;6.65;5.85;;;;;;;25.69;nan;95629.63;5031596;28;20472;-69
2022/09/06 08:43:21;;;;;;;9.30;5.50;;;;;;;25.62;nan;95617.22;5031370;28;20194;-68
2022/09/06 08:45:53;;;;;;;8.27;5.93;;;;;;;25.40;nan;95620.78;5028948;28;20428;-68
2022/09/06 08:48:21;;;;;;;9.82;6.07;;;;;;;25.59;nan;95614.88;5027229;28;20482;-68
2022/09/06 08:50:58;;;;;;;6.80;6.13;;;;;;;25.88;nan;95615.03;5028005;28;20703;-66
2022/09/06 08:53:26;;;;;;;7.60;6.82;;;;;;;25.59;nan;95609.66;5027318;28;20558;-67
2022/09/06 08:55:59;;;;;;;7.07;6.28;;;;;;;25.43;nan;95599.72;5028195;28;20202;-67
2022/09/06 08:58:41;;;;;;;13.43;6.53;;;;;;;25.81;nan;95609.50;5028136;28;20194;-67
2022/09/06 09:01:14;;;;;;;5.90;5.15;;;;;;;26.18;nan;95607.19;5031490;28;20202;-67
2022/09/06 09:03:43;;;;;;;6.72;5.38;;;;;;;26.48;nan;95595.06;5030019;28;21148;-67
2022/09/06 09:06:10;;;;;;;5.57;5.07;;;;;;;26.90;nan;95593.84;5030645;28;20251;-66
2022/09/06 09:08:45;;;;;;;9.75;6.15;;;;;;;25.60;nan;95591.31;5029618;28;20214;-67
2022/09/06 09:11:17;;;;;;;6.25;5.65;;;;;;;25.60;nan;95593.91;5031145;28;20194;-69
2022/09/06 09:13:53;;;;;;;5.68;5.13;;;;;;;25.85;nan;95584.03;5031727;28;20734;-66
2022/09/06 09:16:20;;;;;;;7.97;7.28;;;;;;;24.92;nan;95578.84;5031288;28;20209;-69
2022/09/06 09:18:51;;;;;;;9.95;5.57;;;;;;;24.73;nan;95582.13;5029664;28;20424;-68
2022/09/06 09:21:21;;;;;;;5.43;4.82;;;;;;;25.04;nan;95578.66;5030390;28;20233;-70
2022/09/06 09:23:53;;;;;;;5.57;4.97;;;;;;;25.30;nan;95573.06;5032164;28;20713;-68
2022/09/06 09:26:22;;;;;;;6.15;5.38;;;;;;;25.67;nan;95571.66;5030632;28;20222;-68
2022/09/06 09:29:09;;;;;;;7.20;4.63;;;;;;;25.79;nan;95571.53;5029765;28;20258;-69
2022/09/06 09:31:39;;;;;;;9.00;4.32;;;;;;;25.27;nan;95561.13;5030935;28;21716;-68
2022/09/06 09:34:11;;;;;;;5.03;4.65;;;;;;;25.36;nan;95567.34;5030381;28;20268;-68
2022/09/06 09:36:38;;;;;;;7.63;6.18;;;;;;;25.12;nan;95559.00;5031659;28;20587;-69
2022/09/06 09:39:10;;;;;;;6.57;5.97;;;;;;;25.20;nan;95564.41;5030126;28;20634;-68
2022/09/06 09:41:40;;;;;;;5.82;5.10;;;;;;;25.50;nan;95548.78;5030444;28;20260;-67
2022/09/06 09:44:11;;;;;;;5.30;4.78;;;;;;;25.87;nan;95551.72;5030260;28;20234;-68
2022/09/06 09:46:40;;;;;;;5.80;4.47;;;;;;;25.93;nan;95552.97;5028775;28;20913;-68
2022/09/06 09:49:11;;;;;;;4.82;4.63;;;;;;;25.53;nan;95553.72;5029751;28;20202;-69
2022/09/06 09:51:39;;;;;;;5.07;4.78;;;;;;;25.39;nan;95543.69;5033332;28;20206;-68
2022/09/06 09:54:09;;;;;;;6.57;4.47;;;;;;;25.52;nan;95543.44;5030241;28;20242;-69
2022/09/06 09:56:43;;;;;;;6.15;5.32;;;;;;;25.58;nan;95550.75;5031317;28;20760;-68
2022/09/06 09:59:21;;;;;;;5.53;5.03;;;;;;;25.81;nan;95541.81;5029406;28;20695;-68
2022/09/06 10:01:48;;;;;;;5.43;5.07;;;;;;;25.86;nan;95542.25;5027539;28;20679;-69
2022/09/06 10:04:24;;;;;;;5.15;4.68;;;;;;;26.18;nan;95534.25;5028897;28;20202;-69
2022/09/06 10:06:51;;;;;;;5.75;5.25;;;;;;;26.36;nan;95531.81;5028421;28;20391;-69
2022/09/06 10:09:21;;;;;;;5.95;5.45;;;;;;;26.48;nan;95525.50;5028784;28;20214;-68
2022/09/06 10:11:56;;;;;;;5.55;5.03;;;;;;;26.66;nan;95529.09;5029844;28;20206;-69
2022/09/06 10:14:28;;;;;;;7.18;4.57;;;;;;;26.89;nan;95527.00;5029252;28;20205;-69
2022/09/06 10:16:55;;;;;;;6.70;4.68;;;;;;;26.95;nan;95523.03;5029856;28;20194;-69
2022/09/06 10:19:39;;;;;;;6.47;5.85;;;;;;;26.82;nan;95517.25;5030043;28;20210;-69
2022/09/06 10:22:20;;;;;;;10.23;5.30;;;;;;;26.60;nan;95518.38;5031542;28;20210;-67
2022/09/06 10:25:09;;;;;;;5.22;4.82;;;;;;;26.67;nan;95512.47;5030371;28;20214;-68
2022/09/06 10:27:43;;;;;;;6.55;4.32;;;;;;;25.80;nan;95513.31;5014122;28;20716;-69
2022/09/06 10:30:13;;;;;;;7.35;5.18;;;;;;;25.76;nan;95510.13;5029945;28;20213;-68
2022/09/06 10:32:46;;;;;;;4.72;4.32;;;;;;;25.57;nan;95513.47;5028556;28;20309;-69
2022/09/06 10:35:22;;;;;;;3.00;2.90;;;;;;;25.45;nan;95514.53;5029567;28;20260;-68
2022/09/06 10:38:03;;;;;;;4.50;4.25;;;;;;;25.79;nan;95509.06;5029264;28;20198;-68
2022/09/06 10:40:36;;;;;;;4.03;3.58;;;;;;;26.24;nan;95499.81;5030177;28;20210;-68
2022/09/06 10:43:08;;;;;;;5.22;4.45;;;;;;;26.24;nan;95507.63;5032350;28;20206;-69
2022/09/06 10:45:44;;;;;;;3.90;3.70;;;;;;;25.83;nan;95505.22;5033192;28;20202;-69
2022/09/06 10:48:17;;;;;;;3.40;2.97;;;;;;;26.04;nan;95500.75;5033453;28;20221;-68
2022/09/06 10:50:50;;;;;;;3.17;2.97;;;;;;;26.51;nan;95503.53;5033791;28;20212;-69
2022/09/06 10:53:33;;;;;;;4.00;3.42;;;;;;;26.68;nan;95490.66;5033222;28;20263;-69
2022/09/06 10:56:06;;;;;;;3.50;3.30;;;;;;;26.74;nan;95487.47;5033991;28;20214;-68
2022/09/06 10:58:38;;;;;;;3.20;2.90;;;;;;;26.60;nan;95481.88;5033187;28;20198;-69
2022/09/06 11:01:08;;;;;;;3.65;3.45;;;;;;;26.75;nan;95483.09;5033719;28;20206;-68
2022/09/06 11:03:42;;;;;;;3.42;3.05;;;;;;;26.51;nan;95477.47;5032779;28;20202;-69
2022/09/06 11:06:12;;;;;;;4.15;3.47;;;;;;;26.39;nan;95479.44;5034185;28;20276;-69
2022/09/06 11:08:46;;;;;;;3.88;3.47;;;;;;;26.59;nan;95486.25;5031757;28;20719;-68
2022/09/06 11:11:19;;;;;;;4.13;3.83;;;;;;;26.73;nan;95478.00;5032693;28;20233;-70
2022/09/06 11:13:46;;;;;;;3.58;3.38;;;;;;;26.95;nan;95476.91;5032333;28;20714;-68
2022/09/06 11:16:20;;;;;;;2.70;2.60;;;;;;;27.27;nan;95475.69;5032698;28;20214;-68
2022/09/06 11:18:52;;;;;;;5.63;2.83;;;;;;;27.43;nan;95466.31;5032280;28;20289;-68
2022/09/06 11:22:22;;;;;;;3.55;3.35;;;;;;;27.47;nan;95479.88;5034269;28;20206;-69
2022/09/06 11:25:19;;;;;;;2.88;2.72;;;;;;;27.09;nan;95479.06;5032114;28;20219;-69
2022/09/06 11:27:49;;;;;;;3.38;3.05;;;;;;;27.06;nan;95473.31;5032799;28;20711;-68
2022/09/06 11:30:18;;;;;;;2.67;2.53;;;;;;;27.24;nan;95466.38;5034035;28;20199;-68
2022/09/06 11:32:48;;;;;;;2.58;2.47;;;;;;;26.98;nan;95463.56;5032988;28;20206;-69
2022/09/06 11:35:23;;;;;;;2.35;2.15;;;;;;;27.02;nan;95464.94;5033465;28;20293;-69
2022/09/06 11:37:59;;;;;;;2.88;2.78;;;;;;;27.19;nan;95468.59;5034126;28;20660;-69
2022/09/06 11:40:29;;;;;;;8.02;3.45;;;;;;;27.01;nan;95467.69;5033399;28;20230;-69
2022/09/06 11:43:17;;;;;;;3.67;2.75;;;;;;;26.98;nan;95460.97;5032376;28;20206;-69
2022/09/06 11:45:47;;;;;;;4.35;4.05;;;;;;;26.64;nan;95457.19;5035028;28;20752;-69
2022/09/06 11:48:36;;;;;;;4.25;3.95;;;;;;;26.66;nan;95455.25;5032621;28;20844;-68
2022/09/06 11:51:06;;;;;;;6.50;4.82;;;;;;;26.26;nan;95456.19;5036327;28;20289;-69
2022/09/06 11:53:36;;;;;;;5.60;2.70;;;;;;;26.25;nan;95451.94;5029623;28;20343;-69
2022/09/06 11:56:25;;;;;;;2.50;2.30;;;;;;;26.55;nan;95444.97;5035451;28;20244;-68
2022/09/06 11:58:57;;;;;;;3.08;2.40;;;;;;;26.80;nan;95441.75;5032810;28;20206;-68
2022/09/06 12:01:37;;;;;;;5.63;3.10;;;;;;;26.80;nan;95444.38;5032052;28;20255;-68
2022/09/06 12:04:09;;;;;;;3.15;3.03;;;;;;;27.18;nan;95440.88;5032230;28;20202;-71